This is the latest recevied weather packets stored in our database for station/object HS2LXA-WX. If no packets are shown the sender has not sent any weather packets the latest 10 day(s).
| Time | Temp. | Humidity | Pressure | Rain* | Wind** | Luminosity | Snow |
|---|---|---|---|---|---|---|---|
| 1778302652 | 34.44° C | 64% | 1013.1 hPa | 0 mm | - | - | - |
| 1778302050 | 34.44° C | 63% | 1013.1 hPa | 0 mm | - | - | - |
| 1778301450 | 33.89° C | 63% | 1013.1 hPa | 0 mm | - | - | - |
| 1778300851 | 34.44° C | 59% | 1013.1 hPa | 0 mm | - | - | - |
| 1778298256 | 33.89° C | 63% | 1013.2 hPa | 0 mm | - | - | - |
| 1778297656 | 33.89° C | 64% | 1013.1 hPa | 0 mm | - | - | - |
| 1778297056 | 33.33° C | 67% | 1013.2 hPa | 0 mm | - | - | - |
| 1778296300 | 32.78° C | 66% | 1013.1 hPa | 0 mm | - | - | - |
| 1778295701 | 32.78° C | 65% | 1013.1 hPa | 0 mm | - | - | - |
| 1778294655 | 32.78° C | 66% | 1013.1 hPa | 0 mm | - | - | - |
| 1778294055 | 32.78° C | 68% | 1013.2 hPa | 0 mm | - | - | - |
| 1778293183 | 32.22° C | 70% | 1013.1 hPa | 0 mm | - | - | - |
| 1778292584 | 32.22° C | 71% | 1013.1 hPa | 0 mm | - | - | - |
| 1778291981 | 31.67° C | 72% | 1013.2 hPa | 0 mm | - | - | - |
| 1778291380 | 31.67° C | 71% | 1013.2 hPa | 0 mm | - | - | - |
| 1778290628 | 31.11° C | 74% | 1013.2 hPa | 0 mm | - | - | - |
| 1778290028 | 31.11° C | 75% | 1013.1 hPa | 0 mm | - | - | - |
| 1778289260 | 30.56° C | 76% | 1013.1 hPa | 0 mm | - | - | - |
| 1778288378 | 30° C | 78% | 1013.1 hPa | 0 mm | - | - | - |
| 1778287778 | 30° C | 79% | 1013.2 hPa | 0 mm | - | - | - |
| 1778287178 | 29.44° C | 80% | 1013.1 hPa | 0 mm | - | - | - |
| 1778286579 | 29.44° C | 80% | 1013.1 hPa | 0 mm | - | - | - |
| 1778285975 | 29.44° C | 81% | 1013.1 hPa | 0 mm | - | - | - |
| 1778284925 | 29.44° C | 81% | 1013.2 hPa | 0 mm | - | - | - |
| 1778284325 | 28.89° C | 81% | 1013.2 hPa | 0 mm | - | - | - |
* Rain latest hour (hover to see other rain measurements)
** Current wind speed in m/s (hover to see current wind gust speed)